createdAt,value
2023-11-03T00:00:26.058Z,9.80
2023-11-03T00:02:57.621Z,9.83
2023-11-03T00:05:29.407Z,9.80
2023-11-03T00:08:00.882Z,9.82
2023-11-03T00:10:32.764Z,9.79
2023-11-03T00:13:04.674Z,9.79
2023-11-03T00:15:36.520Z,9.77
2023-11-03T00:18:08.104Z,9.76
2023-11-03T00:20:39.650Z,9.76
2023-11-03T00:23:11.529Z,9.69
2023-11-03T00:25:43.030Z,9.69
2023-11-03T00:28:14.821Z,9.64
2023-11-03T00:30:46.396Z,9.62
2023-11-03T00:33:18.368Z,9.55
2023-11-03T00:35:49.933Z,9.55
2023-11-03T00:38:21.842Z,9.52
2023-11-03T00:40:53.569Z,9.48
2023-11-03T00:43:25.381Z,9.50
2023-11-03T00:45:57.221Z,9.48
2023-11-03T00:48:28.741Z,9.49
2023-11-03T00:51:00.427Z,9.49
2023-11-03T00:53:31.951Z,9.48
2023-11-03T00:56:03.755Z,9.47
2023-11-03T00:58:35.241Z,9.54
2023-11-03T01:01:07.074Z,9.47
2023-11-03T01:03:38.694Z,9.43
2023-11-03T01:06:10.577Z,9.37
2023-11-03T01:08:42.148Z,9.35
2023-11-03T01:11:13.860Z,9.33
2023-11-03T01:13:45.689Z,9.31
2023-11-03T01:16:17.172Z,9.34
2023-11-03T01:18:49.186Z,9.31
2023-11-03T01:21:20.705Z,9.34
2023-11-03T01:23:52.469Z,9.30
2023-11-03T01:26:24.002Z,9.34
2023-11-03T01:28:55.841Z,9.35
2023-11-03T01:31:27.324Z,9.30
2023-11-03T01:33:59.382Z,9.28
2023-11-03T01:36:30.905Z,9.31
2023-11-03T01:39:02.737Z,9.26
2023-11-03T01:41:34.543Z,9.24
2023-11-03T01:44:06.528Z,9.27
2023-11-03T01:46:38.384Z,9.27
2023-11-03T01:49:10.242Z,9.22
2023-11-03T01:51:42.345Z,9.20
2023-11-03T01:54:13.840Z,9.22
2023-11-03T01:56:45.349Z,9.20
2023-11-03T01:59:16.843Z,9.16
2023-11-03T02:01:48.954Z,9.18
2023-11-03T02:04:20.501Z,9.13
2023-11-03T02:06:52.066Z,9.12
2023-11-03T02:09:23.727Z,9.10
2023-11-03T02:11:55.597Z,9.12
2023-11-03T02:14:27.390Z,9.11
2023-11-03T02:16:58.954Z,9.07
2023-11-03T02:19:31.003Z,9.03
2023-11-03T02:22:02.617Z,9.02
2023-11-03T02:24:34.573Z,8.98
2023-11-03T02:27:06.080Z,8.95
2023-11-03T02:29:38.103Z,8.92
2023-11-03T02:32:09.600Z,8.92
2023-11-03T02:34:41.453Z,8.95
2023-11-03T02:37:13.025Z,8.89
2023-11-03T02:39:44.998Z,8.91
2023-11-03T02:42:16.821Z,8.85
2023-11-03T02:44:48.302Z,8.84
2023-11-03T02:47:20.079Z,8.79
2023-11-03T02:49:51.594Z,8.77
2023-11-03T02:52:23.311Z,8.77
2023-11-03T02:54:54.819Z,8.75
2023-11-03T02:57:26.819Z,8.77
2023-11-03T02:59:58.306Z,8.78
2023-11-03T03:02:30.219Z,8.74
2023-11-03T03:05:01.788Z,8.72
2023-11-03T03:07:33.600Z,8.28
2023-11-03T03:10:05.143Z,8.73
2023-11-03T03:12:36.943Z,8.68
2023-11-03T03:15:08.431Z,8.70
2023-11-03T03:17:39.932Z,8.68
2023-11-03T03:20:11.762Z,8.71
2023-11-03T03:22:43.252Z,8.69
2023-11-03T03:25:14.794Z,8.67
2023-11-03T03:27:46.392Z,8.64
2023-11-03T03:30:17.924Z,8.59
2023-11-03T03:32:49.510Z,8.63
2023-11-03T03:35:21.435Z,8.58
2023-11-03T03:37:53.128Z,8.58
2023-11-03T03:40:24.994Z,8.55
2023-11-03T03:42:56.520Z,8.58
2023-11-03T03:45:28.309Z,8.60
2023-11-03T03:47:59.854Z,8.54
2023-11-03T03:50:31.366Z,8.54
2023-11-03T03:53:03.159Z,8.49
2023-11-03T03:55:34.620Z,8.46
2023-11-03T03:58:06.462Z,8.46
2023-11-03T04:00:37.981Z,8.45
2023-11-03T04:03:09.824Z,8.40
2023-11-03T04:05:41.307Z,8.39
2023-11-03T04:08:13.148Z,8.35
2023-11-03T04:10:44.652Z,8.29
2023-11-03T04:13:16.210Z,8.26
2023-11-03T04:15:48.098Z,8.25
2023-11-03T04:18:19.653Z,8.25
2023-11-03T04:20:51.370Z,8.26
2023-11-03T04:23:22.855Z,8.24
2023-11-03T04:25:57.685Z,8.25
2023-11-03T04:28:29.176Z,8.19
2023-11-03T04:31:00.984Z,8.19
2023-11-03T04:33:32.617Z,8.19
2023-11-03T04:36:04.525Z,8.19
2023-11-03T04:38:36.008Z,8.15
2023-11-03T04:41:07.654Z,8.20
2023-11-03T04:43:39.298Z,8.19
2023-11-03T04:46:11.309Z,8.19
2023-11-03T04:48:42.866Z,8.13
2023-11-03T04:51:14.945Z,8.12
2023-11-03T04:53:46.493Z,8.13
2023-11-03T04:56:18.393Z,8.10
2023-11-03T04:58:50.222Z,8.10
2023-11-03T05:01:21.719Z,8.10
2023-11-03T05:03:53.519Z,8.10
2023-11-03T05:06:25.087Z,8.13
2023-11-03T05:08:57.088Z,8.10
2023-11-03T05:11:29.018Z,8.10
2023-11-03T05:14:00.893Z,8.13
2023-11-03T05:16:32.394Z,8.13
2023-11-03T05:19:03.982Z,8.12
2023-11-03T05:21:36.030Z,8.10
2023-11-03T05:24:07.521Z,8.06
2023-11-03T05:26:39.365Z,8.07
2023-11-03T05:29:19.143Z,8.08
2023-11-03T05:31:57.339Z,8.04
2023-11-03T05:34:28.911Z,8.05
2023-11-03T05:37:00.821Z,8.04
2023-11-03T05:39:32.349Z,8.00
2023-11-03T05:42:04.131Z,7.99
2023-11-03T05:44:35.959Z,8.00
2023-11-03T05:47:07.458Z,7.97
2023-11-03T05:49:39.202Z,7.50
2023-11-03T05:52:10.752Z,7.97
2023-11-03T05:54:42.291Z,7.97
2023-11-03T05:57:13.772Z,7.96
2023-11-03T05:59:45.275Z,7.93
2023-11-03T06:02:16.807Z,7.92
2023-11-03T06:04:48.660Z,7.95
2023-11-03T06:07:20.368Z,7.98
2023-11-03T06:09:51.901Z,7.95
2023-11-03T06:12:23.462Z,7.97
2023-11-03T06:14:54.939Z,8.01
2023-11-03T06:17:26.439Z,7.99
2023-11-03T06:19:57.927Z,7.99
2023-11-03T06:22:29.631Z,7.99
2023-11-03T06:25:01.135Z,8.03
2023-11-03T06:27:32.986Z,8.01
2023-11-03T06:30:04.473Z,8.04
2023-11-03T06:32:36.337Z,7.97
2023-11-03T06:35:07.898Z,7.94
2023-11-03T06:37:39.785Z,7.90
2023-11-03T06:40:11.331Z,7.92
2023-11-03T06:42:43.107Z,7.89
2023-11-03T06:45:14.617Z,7.98
2023-11-03T06:47:46.153Z,8.02
2023-11-03T06:50:17.983Z,8.00
2023-11-03T06:52:49.516Z,8.10
2023-11-03T06:55:21.321Z,8.14
2023-11-03T06:57:52.857Z,8.18
2023-11-03T07:00:24.457Z,8.13
2023-11-03T07:02:56.097Z,8.16
2023-11-03T07:05:27.976Z,8.14
2023-11-03T07:07:59.489Z,8.21
2023-11-03T07:10:31.439Z,8.24
2023-11-03T07:13:02.982Z,8.23
2023-11-03T07:15:34.969Z,8.26
2023-11-03T07:18:06.479Z,8.31
2023-11-03T07:20:38.038Z,8.28
2023-11-03T07:23:09.867Z,8.29
2023-11-03T07:25:41.375Z,8.30
2023-11-03T07:28:13.141Z,8.40
2023-11-03T07:30:44.639Z,8.45
2023-11-03T07:33:16.502Z,8.42
2023-11-03T07:35:48.075Z,8.52
2023-11-03T07:38:23.015Z,8.53
2023-11-03T07:40:54.775Z,8.64
2023-11-03T07:43:26.582Z,8.66
2023-11-03T07:45:58.157Z,8.69
2023-11-03T07:48:29.859Z,8.67
2023-11-03T07:51:01.785Z,8.59
2023-11-03T07:53:33.310Z,8.68
2023-11-03T07:56:04.979Z,8.64
2023-11-03T07:58:36.467Z,8.65
2023-11-03T08:01:08.472Z,8.77
2023-11-03T08:03:40.126Z,8.88
2023-11-03T08:06:12.101Z,8.98
2023-11-03T08:08:43.644Z,9.03
2023-11-03T08:11:15.503Z,9.00
2023-11-03T08:13:47.313Z,9.06
2023-11-03T08:16:19.266Z,9.08
2023-11-03T08:18:51.131Z,9.07
2023-11-03T08:21:22.657Z,9.04
2023-11-03T08:23:54.315Z,9.08
2023-11-03T08:26:25.813Z,9.03
2023-11-03T08:28:57.651Z,9.20
2023-11-03T08:31:29.162Z,9.26
2023-11-03T08:34:01.040Z,9.29
2023-11-03T08:36:32.628Z,9.33
2023-11-03T08:39:07.300Z,9.60
2023-11-03T08:41:42.906Z,9.53
2023-11-03T08:44:14.733Z,9.52
2023-11-03T08:46:46.298Z,9.68
2023-11-03T08:49:17.860Z,9.72
2023-11-03T08:51:49.748Z,9.69
2023-11-03T08:54:21.232Z,10.11
2023-11-03T08:56:53.139Z,10.17
2023-11-03T08:59:24.678Z,10.08
2023-11-03T09:01:56.378Z,10.10
2023-11-03T09:04:31.043Z,10.34
2023-11-03T09:07:02.625Z,10.28
2023-11-03T09:09:34.127Z,10.57
2023-11-03T09:12:05.838Z,10.43
2023-11-03T09:14:37.366Z,10.48
2023-11-03T09:17:10.727Z,10.37
2023-11-03T09:19:42.750Z,10.52
2023-11-03T09:22:19.052Z,10.51
2023-11-03T09:24:55.000Z,10.53
2023-11-03T09:27:26.520Z,10.81
2023-11-03T09:29:58.180Z,10.73
2023-11-03T09:32:29.735Z,10.84
2023-11-03T09:35:01.589Z,10.83
2023-11-03T09:37:33.305Z,10.91
2023-11-03T09:40:05.238Z,11.09
2023-11-03T09:42:38.173Z,11.20
2023-11-03T09:45:10.692Z,10.93
2023-11-03T09:47:42.562Z,11.09
2023-11-03T09:50:14.083Z,10.85
2023-11-03T09:52:45.920Z,10.88
2023-11-03T09:55:17.503Z,10.93
2023-11-03T09:57:49.457Z,11.20
2023-11-03T10:00:20.990Z,10.94
2023-11-03T10:02:52.993Z,10.99
2023-11-03T10:05:24.604Z,11.22
2023-11-03T10:07:56.435Z,11.30
2023-11-03T10:10:28.300Z,11.01
2023-11-03T10:12:59.911Z,11.23
2023-11-03T10:15:31.597Z,11.42
2023-11-03T10:18:03.197Z,11.25
2023-11-03T10:20:35.099Z,11.18
2023-11-03T10:23:06.624Z,10.81
2023-11-03T10:25:38.619Z,10.93
2023-11-03T10:28:10.307Z,11.04
2023-11-03T10:30:41.820Z,11.06
2023-11-03T10:33:13.522Z,10.93
2023-11-03T10:35:45.458Z,11.19
2023-11-03T10:38:17.404Z,11.23
2023-11-03T10:40:49.261Z,11.08
2023-11-03T10:43:20.938Z,11.01
2023-11-03T10:45:52.506Z,10.90
2023-11-03T10:48:24.506Z,11.18
2023-11-03T10:50:56.112Z,11.10
2023-11-03T10:53:28.365Z,11.05
2023-11-03T10:56:01.860Z,11.17
2023-11-03T10:58:34.683Z,10.80
2023-11-03T11:01:06.240Z,11.07
2023-11-03T11:03:38.061Z,11.00
2023-11-03T11:06:09.619Z,10.84
2023-11-03T11:08:41.531Z,10.92
2023-11-03T11:11:13.396Z,11.13
2023-11-03T11:13:44.878Z,11.10
2023-11-03T11:16:16.702Z,10.97
2023-11-03T11:18:48.408Z,11.05
2023-11-03T11:21:20.276Z,11.15
2023-11-03T11:23:51.769Z,10.79
2023-11-03T11:28:58.044Z,11.19
2023-11-03T11:31:29.923Z,11.19
2023-11-03T11:34:01.560Z,11.16
2023-11-03T11:36:33.190Z,11.47
2023-11-03T11:39:04.708Z,11.64
2023-11-03T11:41:36.191Z,11.48
2023-11-03T11:44:08.028Z,11.50
2023-11-03T11:46:39.574Z,11.44
2023-11-03T11:49:11.151Z,11.36
2023-11-03T11:51:43.634Z,11.53
2023-11-03T11:54:15.139Z,11.67
2023-11-03T11:56:46.619Z,11.66
2023-11-03T11:59:18.479Z,11.54
2023-11-03T12:01:49.954Z,11.35
2023-11-03T12:04:21.789Z,11.32
2023-11-03T12:06:53.518Z,11.37
2023-11-03T12:09:25.280Z,11.42
2023-11-03T12:11:57.296Z,11.39
2023-11-03T12:14:28.794Z,11.31
2023-11-03T12:17:00.295Z,11.20
2023-11-03T12:19:31.819Z,11.19
2023-11-03T12:22:05.035Z,11.30
2023-11-03T12:24:36.531Z,11.50
2023-11-03T12:27:08.034Z,11.54
2023-11-03T12:29:39.524Z,11.16
2023-11-03T12:32:11.099Z,11.17
2023-11-03T12:34:42.691Z,11.34
2023-11-03T12:37:14.569Z,11.47
2023-11-03T12:39:46.524Z,11.29
2023-11-03T12:42:18.043Z,11.62
2023-11-03T12:44:49.897Z,11.72
2023-11-03T12:47:21.615Z,11.88
2023-11-03T12:49:53.521Z,11.74
2023-11-03T12:52:25.410Z,12.00
2023-11-03T12:54:57.046Z,11.68
2023-11-03T12:57:28.985Z,11.99
2023-11-03T13:00:00.549Z,11.98
2023-11-03T13:02:32.312Z,11.66
2023-11-03T13:05:03.894Z,11.89
2023-11-03T13:07:35.859Z,11.88
2023-11-03T13:10:07.393Z,11.86
2023-11-03T13:12:39.203Z,11.83
2023-11-03T13:15:10.894Z,11.89
2023-11-03T13:17:42.579Z,11.85
2023-11-03T13:20:14.099Z,11.81
2023-11-03T13:22:45.575Z,12.24
2023-11-03T13:25:17.446Z,12.48
2023-11-03T13:27:49.010Z,12.38
2023-11-03T13:30:20.812Z,12.27
2023-11-03T13:32:52.343Z,12.16
2023-11-03T13:35:24.305Z,12.12
2023-11-03T13:37:55.804Z,11.93
2023-11-03T13:40:30.053Z,12.13
2023-11-03T13:43:02.288Z,11.89
2023-11-03T13:45:34.115Z,12.02
2023-11-03T13:48:06.147Z,12.23
2023-11-03T13:50:37.775Z,12.49
2023-11-03T13:53:09.671Z,12.50
2023-11-03T13:55:41.237Z,12.38
2023-11-03T13:58:13.113Z,12.19
2023-11-03T14:00:44.680Z,11.79
2023-11-03T14:03:16.607Z,11.98
2023-11-03T14:05:48.204Z,11.89
2023-11-03T14:08:20.081Z,11.70
2023-11-03T14:10:52.031Z,11.69
2023-11-03T14:13:24.048Z,11.67
2023-11-03T14:15:55.940Z,11.55
2023-11-03T14:18:27.519Z,11.57
2023-11-03T14:20:59.425Z,11.45
2023-11-03T14:23:30.924Z,11.37
2023-11-03T14:26:02.761Z,11.24
2023-11-03T14:28:34.280Z,11.18
2023-11-03T14:31:06.291Z,11.13
2023-11-03T14:33:37.876Z,11.11
2023-11-03T14:36:09.759Z,11.03
2023-11-03T14:38:41.261Z,11.04
2023-11-03T14:41:13.014Z,10.98
2023-11-03T14:43:44.881Z,10.94
2023-11-03T14:46:16.726Z,10.94
2023-11-03T14:48:48.735Z,10.80
2023-11-03T14:51:20.260Z,10.84
2023-11-03T14:53:52.001Z,10.70
2023-11-03T14:56:23.474Z,10.64
2023-11-03T14:58:55.296Z,10.63
2023-11-03T15:01:26.839Z,10.62
2023-11-03T15:03:58.412Z,10.57
2023-11-03T15:06:32.312Z,10.49
2023-11-03T15:09:04.672Z,10.44
2023-11-03T15:11:36.342Z,10.44
2023-11-03T15:14:07.891Z,10.34
2023-11-03T15:16:39.746Z,10.30
2023-11-03T15:19:11.298Z,10.23
2023-11-03T15:21:43.226Z,10.15
2023-11-03T15:24:14.721Z,10.07
2023-11-03T15:26:46.279Z,9.96
2023-11-03T15:29:19.210Z,9.93
2023-11-03T15:31:52.119Z,9.89
2023-11-03T15:34:23.672Z,9.82
2023-11-03T15:36:55.617Z,9.82
2023-11-03T15:39:27.093Z,9.81
2023-11-03T15:41:58.910Z,9.82
2023-11-03T15:44:30.750Z,9.82
2023-11-03T15:47:02.236Z,9.83
2023-11-03T15:49:33.777Z,9.83
2023-11-03T15:52:06.300Z,9.83
2023-11-03T15:54:38.274Z,9.79
2023-11-03T15:57:09.773Z,9.70
2023-11-03T15:59:41.713Z,9.73
2023-11-03T16:02:13.393Z,9.70
2023-11-03T16:04:44.933Z,9.66
2023-11-03T16:07:16.494Z,9.61
2023-11-03T16:09:48.360Z,9.55
2023-11-03T16:12:20.196Z,9.57
2023-11-03T16:14:52.074Z,9.56
2023-11-03T16:17:23.893Z,9.54
2023-11-03T16:19:55.418Z,9.54
2023-11-03T16:22:27.310Z,9.58
2023-11-03T16:24:58.829Z,9.59
2023-11-03T16:27:30.323Z,9.60
2023-11-03T16:30:01.815Z,9.60
2023-11-03T16:32:33.665Z,9.58
2023-11-03T16:35:05.203Z,9.50
2023-11-03T16:37:37.127Z,9.52
2023-11-03T16:40:08.656Z,9.52
2023-11-03T16:42:40.443Z,9.46
2023-11-03T16:45:12.227Z,9.45
2023-11-03T16:47:43.898Z,9.43
2023-11-03T16:50:15.772Z,9.43
2023-11-03T16:52:47.264Z,9.44
2023-11-03T16:55:19.166Z,9.43
2023-11-03T16:57:50.696Z,9.03
2023-11-03T17:00:26.707Z,9.41
2023-11-03T17:03:01.314Z,9.39
2023-11-03T17:05:33.211Z,9.42
2023-11-03T17:08:04.696Z,9.41
2023-11-03T17:10:36.423Z,9.36
2023-11-03T17:13:08.443Z,9.38
2023-11-03T17:15:39.954Z,9.42
2023-11-03T17:18:11.896Z,9.42
2023-11-03T17:20:43.404Z,9.38
2023-11-03T17:23:14.887Z,9.40
2023-11-03T17:25:46.425Z,9.40
2023-11-03T17:28:18.391Z,9.34
2023-11-03T17:30:49.908Z,9.29
2023-11-03T17:33:21.854Z,9.34
2023-11-03T17:35:53.425Z,9.31
2023-11-03T17:38:25.180Z,9.36
2023-11-03T17:40:56.975Z,9.34
2023-11-03T17:43:28.853Z,9.37
2023-11-03T17:46:00.533Z,9.33
2023-11-03T17:48:32.043Z,9.33
2023-11-03T17:51:03.564Z,9.33
2023-11-03T17:53:35.108Z,9.31
2023-11-03T17:56:07.069Z,9.28
2023-11-03T17:58:38.607Z,9.22
2023-11-03T18:01:10.189Z,9.22
2023-11-03T18:03:41.732Z,9.18
2023-11-03T18:06:13.697Z,9.11
2023-11-03T18:08:45.522Z,9.09
2023-11-03T18:11:17.200Z,8.74
2023-11-03T18:13:49.040Z,9.06
2023-11-03T18:16:20.543Z,9.05
2023-11-03T18:18:52.492Z,9.07
2023-11-03T18:21:24.004Z,9.05
2023-11-03T18:23:55.927Z,9.11
2023-11-03T18:26:27.435Z,9.14
2023-11-03T18:28:59.152Z,9.14
2023-11-03T18:31:30.743Z,9.18
2023-11-03T18:34:02.694Z,9.20
2023-11-03T18:36:34.291Z,9.25
2023-11-03T18:39:06.021Z,9.24
2023-11-03T18:41:38.076Z,9.18
2023-11-03T18:44:09.918Z,9.21
2023-11-03T18:46:41.558Z,9.19
2023-11-03T18:51:47.699Z,9.22
2023-11-03T19:07:33.458Z,9.26
2023-11-03T19:10:03.450Z,9.24
2023-11-03T19:12:35.009Z,9.30
2023-11-03T19:15:06.905Z,9.32
2023-11-03T19:17:40.298Z,9.31
2023-11-03T19:20:12.418Z,9.33
2023-11-03T19:22:43.928Z,9.32
2023-11-03T19:25:15.781Z,9.39
2023-11-03T19:27:47.324Z,9.36
2023-11-03T19:30:19.363Z,9.40
2023-11-03T19:32:51.321Z,9.39
2023-11-03T19:35:23.183Z,9.42
2023-11-03T19:37:55.050Z,8.94
2023-11-03T19:40:26.878Z,9.39
2023-11-03T19:42:58.710Z,9.38
2023-11-03T19:45:30.257Z,9.38
2023-11-03T19:48:02.214Z,9.33
2023-11-03T19:50:33.714Z,9.33
2023-11-03T19:53:05.490Z,9.23
2023-11-03T19:55:36.974Z,9.22
2023-11-03T19:58:08.817Z,9.21
2023-11-03T20:00:40.353Z,9.24
2023-11-03T20:03:12.289Z,9.22
2023-11-03T20:05:44.404Z,9.19
2023-11-03T20:08:16.142Z,9.25
2023-11-03T20:10:47.649Z,9.20
2023-11-03T20:13:19.164Z,9.18
2023-11-03T20:15:50.899Z,9.15
2023-11-03T20:18:22.560Z,9.06
2023-11-03T20:20:54.581Z,9.04
2023-11-03T20:23:26.077Z,9.01
2023-11-03T20:25:57.925Z,9.06
2023-11-03T20:28:29.424Z,9.05
2023-11-03T20:31:01.252Z,9.02
2023-11-03T20:33:32.805Z,9.05
2023-11-03T20:36:04.328Z,9.07
2023-11-03T20:38:36.224Z,8.99
2023-11-03T20:41:07.715Z,8.96
2023-11-03T20:43:39.462Z,8.99
2023-11-03T20:46:10.950Z,9.03
2023-11-03T20:48:42.610Z,9.02
2023-11-03T20:51:14.199Z,9.03
2023-11-03T20:53:45.726Z,9.01
2023-11-03T20:56:17.270Z,9.03
2023-11-03T20:58:49.130Z,9.01
2023-11-03T21:01:20.642Z,9.03
2023-11-03T21:03:52.316Z,8.90
2023-11-03T21:06:24.280Z,9.04
2023-11-03T21:08:55.956Z,9.01
2023-11-03T21:11:27.555Z,8.97
2023-11-03T21:13:59.053Z,9.00
2023-11-03T21:16:30.581Z,8.99
2023-11-03T21:19:02.192Z,9.00
2023-11-03T21:21:34.215Z,8.97
2023-11-03T21:24:05.725Z,8.99
2023-11-03T21:26:37.227Z,8.99
2023-11-03T21:29:08.752Z,8.97
2023-11-03T21:31:40.481Z,8.96
2023-11-03T21:34:12.077Z,8.99
2023-11-03T21:36:43.692Z,8.94
2023-11-03T21:39:15.489Z,8.96
2023-11-03T21:41:47.358Z,8.96
2023-11-03T21:44:18.939Z,8.95
2023-11-03T21:46:50.426Z,8.98
2023-11-03T21:49:22.329Z,8.98
2023-11-03T21:51:54.039Z,9.00
2023-11-03T21:54:25.608Z,8.98
2023-11-03T21:56:57.147Z,8.99
2023-11-03T21:59:29.033Z,8.99
2023-11-03T22:02:00.593Z,8.52
2023-11-03T22:04:32.576Z,9.04
2023-11-03T22:07:04.265Z,9.00
2023-11-03T22:09:35.865Z,9.01
2023-11-03T22:12:07.604Z,9.02
2023-11-03T22:14:39.227Z,9.01
2023-11-03T22:17:10.925Z,9.05
2023-11-03T22:19:42.491Z,9.07
2023-11-03T22:22:14.346Z,9.07
2023-11-03T22:24:45.883Z,9.11
2023-11-03T22:27:18.043Z,9.09
2023-11-03T22:29:49.573Z,9.09
2023-11-03T22:32:21.182Z,9.07
2023-11-03T22:34:53.057Z,9.09
2023-11-03T22:37:25.100Z,9.08
2023-11-03T22:39:56.947Z,9.12
2023-11-03T22:42:28.516Z,9.12
2023-11-03T22:45:00.354Z,9.09
2023-11-03T22:47:31.880Z,9.11
2023-11-03T22:50:03.954Z,9.14
2023-11-03T22:52:35.468Z,9.11
2023-11-03T22:55:07.458Z,9.07
2023-11-03T22:57:39.023Z,9.11
2023-11-03T23:00:10.556Z,9.11
2023-11-03T23:02:42.130Z,9.09
2023-11-03T23:05:14.202Z,9.10
2023-11-03T23:07:46.075Z,9.08
2023-11-03T23:10:17.701Z,9.13
2023-11-03T23:12:49.585Z,9.06
2023-11-03T23:15:21.157Z,9.08
2023-11-03T23:17:52.692Z,9.02
2023-11-03T23:20:24.297Z,9.03
2023-11-03T23:22:56.292Z,9.06
2023-11-03T23:25:27.772Z,9.00
2023-11-03T23:27:59.782Z,8.98
2023-11-03T23:30:31.357Z,8.96
2023-11-03T23:33:03.482Z,8.93
2023-11-03T23:35:35.033Z,8.96
2023-11-03T23:38:06.726Z,8.87
2023-11-03T23:40:38.217Z,8.83
2023-11-03T23:43:09.766Z,8.85
2023-11-03T23:45:41.560Z,8.80
2023-11-03T23:48:13.295Z,8.80
2023-11-03T23:50:45.174Z,8.73
2023-11-03T23:53:16.828Z,8.66
2023-11-03T23:55:48.699Z,8.64
2023-11-03T23:58:20.198Z,8.64
